createdAt,value
2022-07-31T00:00:26.946Z,67.68
2022-07-31T00:03:05.729Z,66.58
2022-07-31T00:05:38.671Z,71.12
2022-07-31T00:08:10.453Z,70.96
2022-07-31T00:10:38.715Z,72.16
2022-07-31T00:13:05.744Z,68.58
2022-07-31T00:15:32.788Z,72.39
2022-07-31T00:18:02.246Z,73.49
2022-07-31T00:20:30.490Z,73.66
2022-07-31T00:22:58.704Z,69.29
2022-07-31T00:25:27.461Z,70.35
2022-07-31T00:27:54.599Z,75.70
2022-07-31T00:30:22.200Z,69.99
2022-07-31T00:32:51.924Z,74.35
2022-07-31T00:35:19.100Z,73.78
2022-07-31T00:37:46.254Z,69.54
2022-07-31T00:40:16.768Z,69.55
2022-07-31T00:42:43.730Z,66.72
2022-07-31T00:45:13.726Z,66.68
2022-07-31T00:47:41.191Z,71.73
2022-07-31T00:50:11.676Z,73.04
2022-07-31T00:52:39.951Z,74.37
2022-07-31T00:55:08.204Z,66.53
2022-07-31T00:57:37.540Z,72.32
2022-07-31T01:00:05.948Z,72.44
2022-07-31T01:02:35.024Z,67.13
2022-07-31T01:05:01.911Z,66.26
2022-07-31T01:07:28.885Z,67.68
2022-07-31T01:09:56.761Z,72.81
2022-07-31T01:12:29.739Z,69.14
2022-07-31T01:15:02.043Z,70.56
2022-07-31T01:17:35.098Z,71.28
2022-07-31T01:20:02.736Z,72.47
2022-07-31T01:22:50.830Z,68.70
2022-07-31T01:25:37.111Z,68.29
2022-07-31T01:28:16.515Z,69.60
2022-07-31T01:30:56.161Z,69.95
2022-07-31T01:33:42.579Z,72.33
2022-07-31T01:36:14.919Z,70.61
2022-07-31T01:38:47.814Z,70.04
2022-07-31T01:41:18.084Z,68.62
2022-07-31T01:43:50.040Z,72.40
2022-07-31T01:46:22.173Z,73.49
2022-07-31T01:48:50.387Z,73.34
2022-07-31T01:51:19.664Z,73.68
2022-07-31T01:53:52.146Z,71.46
2022-07-31T01:56:20.518Z,72.67
2022-07-31T01:58:50.400Z,72.98
2022-07-31T02:01:24.154Z,71.02
2022-07-31T02:03:56.214Z,73.75
2022-07-31T02:06:27.079Z,77.03
2022-07-31T02:08:55.479Z,77.59
2022-07-31T02:11:23.518Z,76.72
2022-07-31T02:13:54.416Z,79.89
2022-07-31T02:16:26.435Z,79.65
2022-07-31T02:18:57.296Z,77.10
2022-07-31T02:21:26.287Z,78.26
2022-07-31T02:23:56.329Z,76.86
2022-07-31T02:26:28.217Z,76.88
2022-07-31T02:28:57.262Z,84.04
2022-07-31T02:31:28.488Z,79.72
2022-07-31T02:33:55.568Z,77.74
2022-07-31T02:36:24.149Z,77.36
2022-07-31T02:38:54.200Z,78.37
2022-07-31T02:41:26.615Z,78.32
2022-07-31T02:43:56.392Z,78.32
2022-07-31T02:46:26.359Z,79.84
2022-07-31T02:48:54.292Z,80.05
2022-07-31T02:51:23.482Z,83.35
2022-07-31T02:53:51.360Z,83.84
2022-07-31T02:56:18.840Z,87.21
2022-07-31T02:58:46.210Z,85.41
2022-07-31T03:01:16.304Z,82.11
2022-07-31T03:03:45.636Z,86.59
2022-07-31T03:06:12.837Z,88.21
2022-07-31T03:08:40.340Z,87.45
2022-07-31T03:11:08.551Z,83.05
2022-07-31T03:13:37.199Z,85.15
2022-07-31T03:16:07.263Z,82.51
2022-07-31T03:18:35.695Z,83.81
2022-07-31T03:21:06.630Z,80.88
2022-07-31T03:23:36.306Z,82.29
2022-07-31T03:26:08.104Z,84.14
2022-07-31T03:28:35.359Z,82.18
2022-07-31T03:31:03.874Z,81.42
2022-07-31T03:33:36.490Z,80.21
2022-07-31T03:36:10.686Z,81.02
2022-07-31T03:38:42.187Z,82.31
2022-07-31T03:41:11.737Z,83.94
2022-07-31T03:43:48.147Z,79.31
2022-07-31T03:46:18.701Z,78.07
2022-07-31T03:48:50.267Z,83.63
2022-07-31T03:51:21.758Z,84.71
2022-07-31T03:53:49.782Z,88.35
2022-07-31T03:56:18.937Z,80.11
2022-07-31T03:58:46.075Z,81.01
2022-07-31T04:01:19.542Z,76.82
2022-07-31T04:03:50.195Z,77.10
2022-07-31T04:06:19.395Z,75.92
2022-07-31T04:08:48.067Z,76.64
2022-07-31T04:11:15.391Z,74.58
2022-07-31T04:13:42.900Z,77.68
2022-07-31T04:16:11.639Z,78.00
2022-07-31T04:18:47.194Z,79.22
2022-07-31T04:21:21.390Z,80.78
2022-07-31T04:23:50.896Z,81.70
2022-07-31T04:26:26.148Z,80.72
2022-07-31T04:28:54.352Z,81.50
2022-07-31T04:31:21.875Z,78.20
2022-07-31T04:33:55.940Z,76.73
2022-07-31T04:36:29.812Z,82.28
2022-07-31T04:39:00.836Z,82.35
2022-07-31T04:41:33.343Z,78.22
2022-07-31T04:44:00.554Z,81.68
2022-07-31T04:46:27.487Z,77.31
2022-07-31T04:48:56.578Z,80.89
2022-07-31T04:51:28.012Z,79.13
2022-07-31T04:53:56.362Z,79.36
2022-07-31T04:56:26.124Z,80.24
2022-07-31T04:58:56.642Z,85.65
2022-07-31T05:01:26.274Z,83.51
2022-07-31T05:03:54.739Z,84.52
2022-07-31T05:06:23.141Z,80.02
2022-07-31T05:08:51.207Z,79.59
2022-07-31T05:11:21.508Z,77.30
2022-07-31T05:13:50.389Z,78.31
2022-07-31T05:16:19.176Z,81.36
2022-07-31T05:18:47.946Z,79.25
2022-07-31T05:21:19.446Z,81.21
2022-07-31T05:23:48.063Z,79.71
2022-07-31T05:26:25.132Z,81.24
2022-07-31T05:28:58.411Z,83.31
2022-07-31T05:31:27.411Z,75.95
2022-07-31T05:33:54.807Z,74.19
2022-07-31T05:36:25.674Z,70.24
2022-07-31T05:38:52.907Z,63.37
2022-07-31T05:41:20.252Z,61.49
2022-07-31T05:43:48.298Z,50.89
2022-07-31T05:46:18.162Z,51.90
2022-07-31T05:48:47.503Z,47.70
2022-07-31T05:51:14.904Z,46.36
2022-07-31T05:53:45.753Z,45.89
2022-07-31T05:56:15.699Z,48.39
2022-07-31T05:58:48.294Z,48.20
2022-07-31T06:01:18.529Z,45.69
2022-07-31T06:03:51.515Z,47.64
2022-07-31T06:06:21.476Z,46.71
2022-07-31T06:08:51.231Z,46.39
2022-07-31T06:11:19.623Z,45.42
2022-07-31T06:13:48.570Z,44.68
2022-07-31T06:16:20.966Z,44.97
2022-07-31T06:18:50.425Z,45.85
2022-07-31T06:23:44.678Z,46.50
2022-07-31T06:26:12.770Z,47.43
2022-07-31T06:28:47.643Z,48.65
2022-07-31T06:31:20.092Z,48.69
2022-07-31T06:33:53.663Z,48.01
2022-07-31T06:36:24.322Z,47.63
2022-07-31T06:38:53.712Z,47.51
2022-07-31T06:41:23.446Z,46.67
2022-07-31T06:43:55.561Z,46.22
2022-07-31T06:46:24.223Z,46.74
2022-07-31T06:48:51.648Z,47.79
2022-07-31T06:51:35.024Z,48.52
2022-07-31T06:54:06.065Z,49.14
2022-07-31T06:56:34.756Z,46.85
2022-07-31T06:59:03.431Z,47.24
2022-07-31T07:01:32.452Z,46.56
2022-07-31T07:03:59.818Z,45.25
2022-07-31T07:06:27.565Z,44.44
2022-07-31T07:08:55.101Z,45.00
2022-07-31T07:11:22.814Z,44.82
2022-07-31T07:13:51.640Z,44.14
2022-07-31T07:16:20.150Z,43.19
2022-07-31T07:18:49.379Z,42.73
2022-07-31T07:21:20.561Z,39.90
2022-07-31T07:23:58.799Z,42.13
2022-07-31T07:26:26.732Z,42.31
2022-07-31T07:28:57.641Z,40.72
2022-07-31T07:31:27.026Z,41.09
2022-07-31T07:33:56.446Z,44.52
2022-07-31T07:36:27.953Z,41.24
2022-07-31T07:38:56.021Z,42.70
2022-07-31T07:41:28.610Z,41.16
2022-07-31T07:43:56.915Z,41.21
2022-07-31T07:46:26.176Z,41.85
2022-07-31T07:48:57.887Z,42.27
2022-07-31T07:51:28.813Z,43.03
2022-07-31T07:53:56.765Z,41.91
2022-07-31T07:56:25.106Z,43.28
2022-07-31T07:58:52.186Z,41.49
2022-07-31T08:01:25.605Z,41.84
2022-07-31T08:04:00.371Z,40.66
2022-07-31T08:06:38.847Z,39.35
2022-07-31T08:09:06.803Z,39.48
2022-07-31T08:11:35.145Z,40.58
2022-07-31T08:14:02.104Z,36.63
2022-07-31T08:16:32.513Z,38.10
2022-07-31T08:19:02.886Z,42.75
2022-07-31T08:21:31.835Z,38.26
2022-07-31T08:24:00.677Z,38.97
2022-07-31T08:26:28.320Z,35.39
2022-07-31T08:28:58.143Z,36.37
2022-07-31T08:31:25.305Z,37.10
2022-07-31T08:33:53.278Z,37.39
2022-07-31T08:36:23.680Z,38.31
2022-07-31T08:38:51.570Z,38.37
2022-07-31T08:41:21.804Z,37.21
2022-07-31T08:44:02.029Z,37.38
2022-07-31T08:46:33.407Z,37.13
2022-07-31T08:49:02.899Z,34.47
2022-07-31T08:51:51.167Z,37.13
2022-07-31T08:54:22.824Z,34.27
2022-07-31T08:56:50.371Z,36.34
2022-07-31T08:59:20.907Z,35.78
2022-07-31T09:01:49.514Z,34.97
2022-07-31T09:04:17.671Z,34.19
2022-07-31T09:06:48.481Z,34.67
2022-07-31T09:09:20.650Z,33.58
2022-07-31T09:11:49.349Z,34.08
2022-07-31T09:14:26.210Z,32.54
2022-07-31T09:16:53.472Z,35.26
2022-07-31T09:19:52.688Z,35.68
2022-07-31T09:22:23.607Z,33.00
2022-07-31T09:24:52.493Z,32.13
2022-07-31T09:27:20.172Z,34.36
2022-07-31T09:29:50.389Z,33.12
2022-07-31T09:32:19.250Z,34.78
2022-07-31T09:34:47.739Z,35.92
2022-07-31T09:37:17.723Z,35.32
2022-07-31T09:39:55.018Z,33.47
2022-07-31T09:42:34.617Z,34.55
2022-07-31T09:45:01.948Z,36.17
2022-07-31T09:47:43.510Z,33.73
2022-07-31T09:50:11.151Z,31.31
2022-07-31T09:52:43.256Z,33.00
2022-07-31T09:55:18.944Z,30.16
2022-07-31T09:57:56.749Z,31.33
2022-07-31T10:00:29.437Z,34.18
2022-07-31T10:02:57.269Z,37.80
2022-07-31T10:05:30.417Z,34.18
2022-07-31T10:08:01.886Z,34.06
2022-07-31T10:10:34.738Z,31.60
2022-07-31T10:13:15.874Z,31.61
2022-07-31T10:15:49.752Z,32.58
2022-07-31T10:18:35.829Z,30.71
2022-07-31T10:21:06.957Z,33.25
2022-07-31T10:23:39.125Z,30.36
2022-07-31T10:26:08.745Z,31.91
2022-07-31T10:28:38.702Z,31.97
2022-07-31T10:31:11.654Z,32.36
2022-07-31T10:33:44.088Z,33.47
2022-07-31T10:36:18.438Z,32.95
2022-07-31T10:38:51.808Z,31.93
2022-07-31T10:41:27.137Z,33.24
2022-07-31T10:44:02.014Z,32.11
2022-07-31T10:46:30.696Z,34.21
2022-07-31T10:48:58.334Z,30.30
2022-07-31T10:51:37.031Z,28.05
2022-07-31T10:54:05.432Z,33.64
2022-07-31T10:56:43.890Z,27.65
2022-07-31T10:59:15.581Z,29.94
2022-07-31T11:01:52.827Z,28.97
2022-07-31T11:04:26.942Z,29.95
2022-07-31T11:06:55.673Z,27.46
2022-07-31T11:09:22.865Z,27.21
2022-07-31T11:11:59.476Z,29.40
2022-07-31T11:14:34.810Z,26.49
2022-07-31T11:17:04.049Z,30.35
2022-07-31T11:19:41.140Z,30.16
2022-07-31T11:22:31.488Z,28.46
2022-07-31T11:25:02.071Z,28.12
2022-07-31T11:27:37.376Z,27.70
2022-07-31T11:30:12.489Z,28.95
2022-07-31T11:32:47.148Z,29.01
2022-07-31T11:35:24.654Z,31.50
2022-07-31T11:40:28.375Z,33.71
2022-07-31T11:43:25.159Z,29.72
2022-07-31T11:48:39.002Z,30.03
2022-07-31T11:51:19.862Z,33.55
2022-07-31T11:53:56.546Z,29.91
2022-07-31T11:56:29.039Z,31.14
2022-07-31T11:59:01.052Z,31.59
2022-07-31T12:01:33.765Z,30.30
2022-07-31T12:04:08.545Z,30.55
2022-07-31T12:06:40.058Z,33.49
2022-07-31T12:10:02.575Z,30.67
2022-07-31T12:12:04.479Z,32.15
2022-07-31T12:14:44.274Z,33.54
2022-07-31T12:17:19.931Z,31.86
2022-07-31T12:19:47.919Z,32.29
2022-07-31T12:22:22.835Z,29.19
2022-07-31T12:25:00.599Z,31.68
2022-07-31T12:27:28.866Z,30.56
2022-07-31T12:30:00.006Z,33.54
2022-07-31T12:32:31.628Z,31.90
2022-07-31T12:35:02.371Z,34.14
2022-07-31T12:37:30.485Z,33.03
2022-07-31T12:40:00.725Z,36.68
2022-07-31T12:42:35.263Z,37.71
2022-07-31T12:45:19.402Z,37.39
2022-07-31T12:47:54.383Z,35.00
2022-07-31T12:50:25.458Z,35.73
2022-07-31T12:55:48.434Z,35.01
2022-07-31T12:58:15.855Z,35.74
2022-07-31T13:00:45.960Z,34.77
2022-07-31T13:03:12.962Z,34.34
2022-07-31T13:05:40.219Z,33.22
2022-07-31T13:08:10.246Z,35.25
2022-07-31T13:10:38.610Z,34.55
2022-07-31T13:13:07.021Z,35.15
2022-07-31T13:15:35.829Z,35.52
2022-07-31T13:18:04.597Z,36.18
2022-07-31T13:20:34.118Z,36.13
2022-07-31T13:23:01.043Z,34.68
2022-07-31T13:28:16.958Z,37.23
2022-07-31T13:30:45.120Z,37.54
2022-07-31T13:33:17.589Z,39.25
2022-07-31T13:35:46.256Z,40.75
2022-07-31T13:38:21.398Z,34.87
2022-07-31T13:40:49.473Z,34.84
2022-07-31T13:43:20.013Z,35.68
2022-07-31T13:45:47.936Z,37.79
2022-07-31T13:48:22.303Z,37.63
2022-07-31T13:50:49.517Z,38.20
2022-07-31T13:53:22.858Z,38.90
2022-07-31T13:55:51.273Z,37.98
2022-07-31T13:58:18.190Z,36.83
2022-07-31T14:00:47.078Z,38.01
2022-07-31T14:03:21.163Z,38.52
2022-07-31T14:05:53.799Z,39.12
2022-07-31T14:08:33.199Z,39.59
2022-07-31T14:11:13.858Z,36.73
2022-07-31T14:13:42.713Z,36.90
2022-07-31T14:16:11.410Z,33.89
2022-07-31T14:18:44.121Z,34.54
2022-07-31T14:21:16.511Z,33.12
2022-07-31T14:23:43.834Z,34.47
2022-07-31T14:26:13.636Z,33.44
2022-07-31T14:28:43.876Z,34.57
2022-07-31T14:31:17.533Z,34.16
2022-07-31T14:33:50.846Z,32.92
2022-07-31T14:36:24.754Z,31.47
2022-07-31T14:38:52.675Z,31.12
2022-07-31T14:41:22.936Z,33.41
2022-07-31T14:43:51.674Z,32.26
2022-07-31T14:46:21.933Z,30.66
2022-07-31T14:48:49.240Z,31.89
2022-07-31T14:51:19.505Z,31.31
2022-07-31T14:53:48.397Z,30.56
2022-07-31T14:56:30.531Z,33.29
2022-07-31T14:59:05.182Z,33.00
2022-07-31T15:01:39.295Z,30.90
2022-07-31T15:04:06.767Z,32.18
2022-07-31T15:06:53.218Z,30.75
2022-07-31T15:09:27.636Z,30.64
2022-07-31T15:12:01.830Z,32.41
2022-07-31T15:14:30.717Z,29.58
2022-07-31T15:17:07.878Z,31.44
2022-07-31T15:19:35.075Z,30.32
2022-07-31T15:22:10.125Z,32.93
2022-07-31T15:24:48.487Z,33.03
2022-07-31T15:27:18.271Z,31.53
2022-07-31T15:30:04.297Z,32.32
2022-07-31T15:32:34.127Z,32.37
2022-07-31T15:35:01.581Z,31.98
2022-07-31T15:37:30.854Z,31.68
2022-07-31T15:40:01.983Z,32.67
2022-07-31T15:42:38.558Z,32.65
2022-07-31T15:45:08.360Z,32.56
2022-07-31T15:47:36.737Z,31.83
2022-07-31T15:50:04.748Z,32.86
2022-07-31T15:52:32.397Z,33.17
2022-07-31T15:55:01.437Z,33.03
2022-07-31T15:57:28.355Z,32.00
2022-07-31T16:00:02.283Z,32.82
2022-07-31T16:02:29.409Z,35.05
2022-07-31T16:04:58.650Z,32.44
2022-07-31T16:08:30.447Z,32.71
2022-07-31T16:10:20.589Z,33.35
2022-07-31T16:12:48.956Z,33.37
2022-07-31T16:15:17.901Z,34.21
2022-07-31T16:17:45.812Z,33.43
2022-07-31T16:20:26.415Z,35.63
2022-07-31T16:22:56.451Z,37.56
2022-07-31T16:25:25.726Z,38.04
2022-07-31T16:27:56.269Z,35.75
2022-07-31T16:30:24.123Z,37.29
2022-07-31T16:32:51.943Z,36.95
2022-07-31T16:35:20.179Z,38.65
2022-07-31T16:37:53.318Z,39.59
2022-07-31T16:40:29.831Z,39.95
2022-07-31T16:43:47.786Z,42.42
2022-07-31T16:45:54.366Z,42.92
2022-07-31T16:48:25.337Z,46.55
2022-07-31T16:50:55.120Z,41.45
2022-07-31T16:54:09.956Z,43.17
2022-07-31T16:56:10.583Z,43.94
2022-07-31T16:58:50.280Z,44.58
2022-07-31T17:01:57.508Z,43.85
2022-07-31T17:04:13.237Z,46.94
2022-07-31T17:06:45.573Z,43.34
2022-07-31T17:09:15.777Z,42.07
2022-07-31T17:11:49.061Z,40.58
2022-07-31T17:14:18.914Z,40.44
2022-07-31T17:16:52.067Z,40.98
2022-07-31T17:19:42.998Z,43.33
2022-07-31T17:22:17.767Z,42.44
2022-07-31T17:24:49.618Z,40.87
2022-07-31T17:27:17.342Z,41.33
2022-07-31T17:29:46.375Z,42.88
2022-07-31T17:32:15.203Z,43.63
2022-07-31T17:34:42.376Z,42.58
2022-07-31T17:37:16.224Z,42.16
2022-07-31T17:39:44.126Z,42.97
2022-07-31T17:42:11.373Z,42.67
2022-07-31T17:44:39.815Z,44.51
2022-07-31T17:47:09.730Z,49.65
2022-07-31T17:49:41.771Z,49.73
2022-07-31T17:52:13.233Z,50.91
2022-07-31T17:54:44.468Z,51.23
2022-07-31T17:57:11.439Z,51.18
2022-07-31T17:59:44.218Z,52.31
2022-07-31T18:02:14.427Z,54.19
2022-07-31T18:04:43.042Z,54.59
2022-07-31T18:07:12.231Z,56.38
2022-07-31T18:09:40.196Z,60.76
2022-07-31T18:12:15.101Z,57.83
2022-07-31T18:14:42.692Z,59.31
2022-07-31T18:17:12.145Z,56.90
2022-07-31T18:19:41.111Z,53.15
2022-07-31T18:22:08.347Z,56.51
2022-07-31T18:24:40.520Z,57.03
2022-07-31T18:27:10.018Z,57.67
2022-07-31T18:29:43.245Z,62.55
2022-07-31T18:32:30.936Z,61.57
2022-07-31T18:34:59.789Z,51.91
2022-07-31T18:37:27.680Z,57.67
2022-07-31T18:39:55.569Z,58.33
2022-07-31T18:42:23.625Z,53.87
2022-07-31T18:44:52.566Z,53.38
2022-07-31T18:47:19.975Z,59.96
2022-07-31T18:51:01.033Z,52.19
2022-07-31T18:52:37.907Z,50.66
2022-07-31T18:55:06.945Z,53.01
2022-07-31T18:57:33.965Z,52.35
2022-07-31T19:00:01.446Z,55.03
2022-07-31T19:02:30.111Z,52.68
2022-07-31T19:04:57.201Z,54.72
2022-07-31T19:07:25.299Z,55.84
2022-07-31T19:09:53.530Z,58.92
2022-07-31T19:12:21.451Z,57.54
2022-07-31T19:14:48.337Z,56.74
2022-07-31T19:17:18.512Z,55.42
2022-07-31T19:19:54.987Z,58.46
2022-07-31T19:22:28.649Z,58.81
2022-07-31T19:24:57.076Z,59.58
2022-07-31T19:27:46.811Z,59.88
2022-07-31T19:30:12.137Z,62.06
2022-07-31T19:32:39.085Z,56.49
2022-07-31T19:35:08.346Z,57.63
2022-07-31T19:37:36.745Z,58.72
2022-07-31T19:40:07.502Z,58.29
2022-07-31T19:42:34.514Z,59.35
2022-07-31T19:45:02.569Z,57.97
2022-07-31T19:47:30.523Z,56.65
2022-07-31T19:49:59.993Z,56.38
2022-07-31T19:52:26.799Z,62.09
2022-07-31T19:54:53.984Z,58.52
2022-07-31T19:57:24.677Z,62.42
2022-07-31T19:59:51.859Z,62.10
2022-07-31T20:02:18.651Z,63.01
2022-07-31T20:04:46.757Z,62.92
2022-07-31T20:07:13.628Z,57.36
2022-07-31T20:09:40.694Z,59.96
2022-07-31T20:12:08.726Z,58.70
2022-07-31T20:14:37.777Z,59.28
2022-07-31T20:17:04.833Z,59.77
2022-07-31T20:19:31.930Z,59.23
2022-07-31T20:22:00.380Z,58.13
2022-07-31T20:24:27.563Z,55.13
2022-07-31T20:26:54.696Z,57.23
2022-07-31T20:29:21.867Z,55.67
2022-07-31T20:31:50.349Z,56.27
2022-07-31T20:34:17.223Z,55.91
2022-07-31T20:36:44.038Z,60.43
2022-07-31T20:39:10.892Z,59.31
2022-07-31T20:41:38.242Z,61.41
2022-07-31T20:44:07.017Z,60.29
2022-07-31T20:46:33.919Z,61.43
2022-07-31T20:49:03.419Z,60.84
2022-07-31T20:51:30.412Z,59.24
2022-07-31T20:53:57.422Z,61.61
2022-07-31T20:56:24.268Z,66.77
2022-07-31T20:58:52.760Z,70.79
2022-07-31T21:01:19.984Z,69.03
2022-07-31T21:03:49.481Z,65.37
2022-07-31T21:06:18.005Z,65.83
2022-07-31T21:08:45.211Z,71.58
2022-07-31T21:11:12.342Z,60.79
2022-07-31T21:13:41.275Z,59.76
2022-07-31T21:16:08.257Z,59.68
2022-07-31T21:18:37.902Z,61.31
2022-07-31T21:21:08.937Z,58.09
2022-07-31T21:23:37.347Z,58.63
2022-07-31T21:26:07.110Z,60.83
2022-07-31T21:28:34.407Z,61.43
2022-07-31T21:31:02.777Z,60.82
2022-07-31T21:33:29.952Z,66.10
2022-07-31T21:35:57.665Z,67.22
2022-07-31T21:38:24.658Z,65.60
2022-07-31T21:40:53.550Z,68.11
2022-07-31T21:43:22.579Z,64.43
2022-07-31T21:45:57.329Z,67.56
2022-07-31T21:48:28.050Z,63.46
2022-07-31T21:50:55.536Z,61.79
2022-07-31T21:53:22.506Z,59.43
2022-07-31T21:55:50.147Z,62.37
2022-07-31T21:58:20.643Z,59.41
2022-07-31T22:00:48.786Z,59.85
2022-07-31T22:03:15.736Z,59.98
2022-07-31T22:05:42.968Z,59.53
2022-07-31T22:08:09.836Z,58.59
2022-07-31T22:10:37.643Z,58.40
2022-07-31T22:13:04.770Z,57.97
2022-07-31T22:15:58.963Z,57.20
2022-07-31T22:18:20.565Z,55.68
2022-07-31T22:20:47.924Z,59.48
2022-07-31T22:23:15.270Z,58.29
2022-07-31T22:25:47.206Z,60.20
2022-07-31T22:28:15.429Z,60.93
2022-07-31T22:30:47.416Z,58.04
2022-07-31T22:33:15.729Z,62.27
2022-07-31T22:35:43.179Z,61.88
2022-07-31T22:38:10.655Z,61.72
2022-07-31T22:40:38.002Z,61.07
2022-07-31T22:44:09.558Z,62.50
2022-07-31T22:45:54.072Z,60.46
2022-07-31T22:48:24.444Z,61.64
2022-07-31T22:50:52.088Z,63.32
2022-07-31T22:53:19.258Z,62.73
2022-07-31T22:55:46.444Z,63.20
2022-07-31T22:58:13.768Z,61.30
2022-07-31T23:00:41.523Z,60.08
2022-07-31T23:03:09.840Z,69.16
2022-07-31T23:06:03.673Z,65.55
2022-07-31T23:08:23.811Z,62.98
2022-07-31T23:10:52.426Z,63.50
2022-07-31T23:13:19.299Z,64.54
2022-07-31T23:15:46.440Z,64.53
2022-07-31T23:18:14.706Z,63.68
2022-07-31T23:20:41.846Z,61.36
2022-07-31T23:23:08.715Z,64.35
2022-07-31T23:25:35.951Z,63.04
2022-07-31T23:28:05.254Z,70.01
2022-07-31T23:30:32.374Z,66.55
2022-07-31T23:33:00.407Z,67.38
2022-07-31T23:35:28.927Z,71.29
2022-07-31T23:37:55.787Z,66.58
2022-07-31T23:40:23.969Z,69.62
2022-07-31T23:42:50.907Z,64.08
2022-07-31T23:45:17.937Z,64.83
2022-07-31T23:47:46.993Z,65.00
2022-07-31T23:50:14.594Z,72.57
2022-07-31T23:52:44.504Z,67.12
2022-07-31T23:55:11.811Z,63.04
2022-07-31T23:57:40.041Z,64.35
